createdAt,value
2022-11-03T00:01:38.496Z,97063.59
2022-11-03T00:04:07.358Z,97069.84
2022-11-03T00:06:36.142Z,97062.03
2022-11-03T00:09:06.795Z,97053.41
2022-11-03T00:11:36.144Z,97043.59
2022-11-03T00:14:06.740Z,97043.59
2022-11-03T00:16:36.786Z,97040.53
2022-11-03T00:19:04.799Z,97045.78
2022-11-03T00:21:33.093Z,97035.63
2022-11-03T00:24:02.551Z,97041.72
2022-11-03T00:26:31.759Z,97038.31
2022-11-03T00:29:01.632Z,97044.44
2022-11-03T00:31:31.363Z,97029.53
2022-11-03T00:34:01.511Z,97036.63
2022-11-03T00:36:31.299Z,97026.16
2022-11-03T00:38:59.860Z,97022.44
2022-11-03T00:41:28.505Z,97024.09
2022-11-03T00:43:57.525Z,97017.94
2022-11-03T00:46:26.896Z,97008.09
2022-11-03T00:48:54.819Z,97005.56
2022-11-03T00:51:25.934Z,97005.66
2022-11-03T00:53:55.481Z,97006.84
2022-11-03T00:56:25.147Z,97012.06
2022-11-03T00:58:54.216Z,97007.78
2022-11-03T01:01:24.098Z,97007.59
2022-11-03T01:04:08.683Z,97000.09
2022-11-03T01:06:53.561Z,97006.25
2022-11-03T01:09:24.093Z,97004.06
2022-11-03T01:11:57.929Z,96989.16
2022-11-03T01:14:27.206Z,96989.50
2022-11-03T01:16:55.156Z,96993.97
2022-11-03T01:19:23.750Z,96989.81
2022-11-03T01:21:53.239Z,96989.13
2022-11-03T01:24:21.711Z,96979.66
2022-11-03T01:26:49.672Z,96979.75
2022-11-03T01:29:18.012Z,96974.91
2022-11-03T01:31:46.080Z,96969.06
2022-11-03T01:34:16.769Z,96975.94
2022-11-03T01:36:45.852Z,96965.63
2022-11-03T01:39:17.155Z,96964.09
2022-11-03T01:41:47.021Z,96971.34
2022-11-03T01:44:31.058Z,96964.56
2022-11-03T01:47:20.474Z,96960.44
2022-11-03T01:49:50.920Z,96960.59
2022-11-03T01:52:24.143Z,96954.56
2022-11-03T01:54:59.391Z,96955.53
2022-11-03T01:57:33.029Z,96957.13
2022-11-03T02:00:02.519Z,96947.72
2022-11-03T02:02:41.324Z,96943.59
2022-11-03T02:05:11.613Z,96940.88
2022-11-03T02:07:43.513Z,96941.88
2022-11-03T02:10:12.990Z,96945.53
2022-11-03T02:12:41.204Z,96939.44
2022-11-03T02:15:12.496Z,96940.97
2022-11-03T02:17:42.428Z,96939.69
2022-11-03T02:20:14.525Z,96940.59
2022-11-03T02:23:15.420Z,96932.06
2022-11-03T02:25:49.439Z,96930.03
2022-11-03T02:28:20.006Z,96913.72
2022-11-03T02:34:06.030Z,96912.03
2022-11-03T02:36:38.895Z,96908.31
2022-11-03T02:39:10.859Z,96904.25
2022-11-03T02:41:41.486Z,96900.94
2022-11-03T02:44:16.006Z,96894.63
2022-11-03T02:46:45.347Z,96891.22
2022-11-03T02:49:13.475Z,96886.00
2022-11-03T02:51:41.815Z,96878.13
2022-11-03T02:54:15.179Z,96872.13
2022-11-03T02:56:50.083Z,96863.94
2022-11-03T02:59:22.586Z,96851.75
2022-11-03T03:01:56.848Z,96850.91
2022-11-03T03:04:29.742Z,96850.34
2022-11-03T03:07:02.987Z,96847.91
2022-11-03T03:09:35.296Z,96848.75
2022-11-03T03:12:07.684Z,96835.78
2022-11-03T03:14:39.838Z,96834.03
2022-11-03T03:17:14.074Z,96834.94
2022-11-03T03:19:50.197Z,96833.41
2022-11-03T03:22:25.417Z,96832.75
2022-11-03T03:24:58.525Z,96837.47
2022-11-03T03:27:30.847Z,96828.53
2022-11-03T03:30:02.509Z,96822.78
2022-11-03T03:32:37.766Z,96813.97
2022-11-03T03:35:09.713Z,96815.09
2022-11-03T03:37:40.334Z,96809.84
2022-11-03T03:40:12.651Z,96801.03
2022-11-03T03:42:44.725Z,96801.41
2022-11-03T03:45:14.467Z,96804.84
2022-11-03T03:47:42.396Z,96798.69
2022-11-03T03:50:10.686Z,96801.41
2022-11-03T03:52:39.065Z,96789.03
2022-11-03T03:55:13.625Z,96782.97
2022-11-03T03:57:43.795Z,96777.81
2022-11-03T04:00:16.004Z,96777.56
2022-11-03T04:02:44.078Z,96768.69
2022-11-03T04:05:12.012Z,96761.09
2022-11-03T04:07:49.070Z,96759.97
2022-11-03T04:10:18.418Z,96763.53
2022-11-03T04:13:06.163Z,96765.47
2022-11-03T04:15:51.878Z,96757.97
2022-11-03T04:18:38.748Z,96759.88
2022-11-03T04:21:24.848Z,96755.50
2022-11-03T04:23:55.114Z,96742.25
2022-11-03T04:26:23.957Z,96736.44
2022-11-03T04:28:54.254Z,96731.50
2022-11-03T04:31:22.630Z,96734.06
2022-11-03T04:33:50.773Z,96739.28
2022-11-03T04:36:20.942Z,96748.25
2022-11-03T04:38:49.701Z,96742.16
2022-11-03T04:41:21.055Z,96733.63
2022-11-03T04:43:51.030Z,96734.63
2022-11-03T04:46:26.953Z,96730.47
2022-11-03T04:48:56.227Z,96735.88
2022-11-03T04:51:27.160Z,96721.97
2022-11-03T04:53:56.930Z,96726.59
2022-11-03T04:56:26.104Z,96731.66
2022-11-03T04:58:54.816Z,96731.50
2022-11-03T05:01:25.146Z,96724.59
2022-11-03T05:03:55.153Z,96719.53
2022-11-03T05:06:25.033Z,96714.38
2022-11-03T05:08:57.274Z,96720.34
2022-11-03T05:11:32.079Z,96713.59
2022-11-03T05:14:03.501Z,96704.91
2022-11-03T05:16:32.816Z,96692.59
2022-11-03T05:19:01.159Z,96693.34
2022-11-03T05:21:29.690Z,96685.38
2022-11-03T05:24:03.671Z,96684.88
2022-11-03T05:26:35.454Z,96685.75
2022-11-03T05:29:05.387Z,96683.84
2022-11-03T05:31:37.911Z,96683.97
2022-11-03T05:34:29.371Z,96674.50
2022-11-03T05:36:59.626Z,96670.09
2022-11-03T05:39:31.057Z,96664.88
2022-11-03T05:42:00.470Z,96663.94
2022-11-03T05:44:36.815Z,96653.81
2022-11-03T05:47:14.200Z,96653.81
2022-11-03T05:49:42.124Z,96650.25
2022-11-03T05:52:20.448Z,96650.25
2022-11-03T05:54:49.050Z,96648.41
2022-11-03T05:57:19.029Z,96651.09
2022-11-03T05:59:48.654Z,96651.97
2022-11-03T06:02:34.199Z,96639.97
2022-11-03T06:05:03.473Z,96643.50
2022-11-03T06:07:32.843Z,96637.53
2022-11-03T06:10:00.803Z,96628.75
2022-11-03T06:12:31.462Z,96621.06
2022-11-03T06:14:59.901Z,96618.69
2022-11-03T06:17:29.976Z,96615.84
2022-11-03T06:20:00.629Z,96614.81
2022-11-03T06:22:31.077Z,96617.44
2022-11-03T06:25:02.754Z,96606.28
2022-11-03T06:27:33.192Z,96608.75
2022-11-03T06:30:04.321Z,96611.38
2022-11-03T06:32:34.390Z,96618.53
2022-11-03T06:35:02.379Z,96621.13
2022-11-03T06:37:33.672Z,96620.19
2022-11-03T06:40:24.360Z,96615.66
2022-11-03T06:42:54.053Z,96617.44
2022-11-03T06:45:24.997Z,96610.94
2022-11-03T06:47:55.661Z,96608.22
2022-11-03T06:50:26.796Z,96608.81
2022-11-03T06:52:56.975Z,96606.03
2022-11-03T06:55:27.597Z,96597.06
2022-11-03T06:57:59.726Z,96598.56
2022-11-03T07:00:35.390Z,96597.38
2022-11-03T07:03:11.413Z,96598.81
2022-11-03T07:05:40.308Z,96596.50
2022-11-03T07:08:20.862Z,96581.41
2022-11-03T07:10:51.040Z,96577.38
2022-11-03T07:13:23.533Z,96567.56
2022-11-03T07:15:52.192Z,96568.22
2022-11-03T07:18:25.035Z,96563.38
2022-11-03T07:20:54.842Z,96569.13
2022-11-03T07:23:25.657Z,96567.22
2022-11-03T07:25:55.496Z,96570.50
2022-11-03T07:28:27.914Z,96566.59
2022-11-03T07:30:57.106Z,96566.41
2022-11-03T07:33:29.190Z,96564.09
2022-11-03T07:36:14.999Z,96565.50
2022-11-03T07:38:44.760Z,96557.16
2022-11-03T07:41:19.357Z,96556.97
2022-11-03T07:43:54.425Z,96547.81
2022-11-03T07:46:23.915Z,96545.63
2022-11-03T07:48:55.270Z,96539.06
2022-11-03T07:51:25.629Z,96537.00
2022-11-03T07:53:56.342Z,96535.69
2022-11-03T07:56:27.634Z,96539.63
2022-11-03T07:59:01.170Z,96532.09
2022-11-03T08:01:31.925Z,96526.50
2022-11-03T08:04:05.313Z,96518.94
2022-11-03T08:06:33.702Z,96516.69
2022-11-03T08:09:01.668Z,96512.50
2022-11-03T08:11:30.101Z,96508.03
2022-11-03T08:13:58.562Z,96497.66
2022-11-03T08:16:26.842Z,96498.75
2022-11-03T08:18:55.092Z,96484.28
2022-11-03T08:21:32.894Z,96480.91
2022-11-03T08:24:00.893Z,96488.91
2022-11-03T08:26:29.610Z,96485.00
2022-11-03T08:28:58.406Z,96482.63
2022-11-03T08:31:26.455Z,96475.03
2022-11-03T08:33:54.434Z,96477.13
2022-11-03T08:36:22.500Z,96474.47
2022-11-03T08:38:51.843Z,96475.00
2022-11-03T08:41:19.697Z,96464.75
2022-11-03T08:43:47.915Z,96461.59
2022-11-03T08:46:18.017Z,96457.38
2022-11-03T08:48:47.120Z,96460.16
2022-11-03T08:51:15.982Z,96456.16
2022-11-03T08:53:44.922Z,96457.38
2022-11-03T08:56:17.010Z,96454.09
2022-11-03T08:58:47.461Z,96447.41
2022-11-03T09:01:15.911Z,96454.75
2022-11-03T09:03:44.172Z,96447.13
2022-11-03T09:06:12.145Z,96438.66
2022-11-03T09:11:29.461Z,96436.81
2022-11-03T09:13:57.925Z,96442.34
2022-11-03T09:16:27.391Z,96438.28
2022-11-03T09:18:55.468Z,96425.50
2022-11-03T09:21:23.531Z,96426.84
2022-11-03T09:23:51.558Z,96429.97
2022-11-03T09:26:19.622Z,96427.81
2022-11-03T09:28:49.606Z,96424.81
2022-11-03T09:31:17.786Z,96431.41
2022-11-03T09:33:45.836Z,96424.09
2022-11-03T09:36:13.839Z,96421.94
2022-11-03T09:38:42.284Z,96420.63
2022-11-03T09:41:26.451Z,96419.44
2022-11-03T09:44:04.851Z,96409.34
2022-11-03T09:46:33.156Z,96404.44
2022-11-03T09:49:01.195Z,96402.28
2022-11-03T09:51:29.988Z,96393.06
2022-11-03T09:54:00.912Z,96382.13
2022-11-03T09:56:29.147Z,96387.06
2022-11-03T09:58:57.235Z,96382.25
2022-11-03T10:01:27.432Z,96379.94
2022-11-03T10:04:00.749Z,96376.94
2022-11-03T10:06:29.273Z,96384.34
2022-11-03T10:08:57.483Z,96376.06
2022-11-03T10:11:25.501Z,96374.75
2022-11-03T10:13:55.871Z,96375.19
2022-11-03T10:16:26.973Z,96385.25
2022-11-03T10:18:55.294Z,96374.19
2022-11-03T10:21:28.641Z,96364.91
2022-11-03T10:23:56.580Z,96360.50
2022-11-03T10:26:24.532Z,96362.16
2022-11-03T10:29:00.483Z,96359.41
2022-11-03T10:31:37.949Z,96348.56
2022-11-03T10:34:07.713Z,96337.88
2022-11-03T10:36:36.373Z,96333.06
2022-11-03T10:39:26.645Z,96333.38
2022-11-03T10:41:59.657Z,96311.88
2022-11-03T10:44:28.828Z,96319.25
2022-11-03T10:47:00.387Z,96322.38
2022-11-03T10:49:30.378Z,96313.22
2022-11-03T10:52:09.277Z,96311.03
2022-11-03T10:54:38.149Z,96307.03
2022-11-03T10:57:06.374Z,96296.91
2022-11-03T10:59:38.227Z,96292.34
2022-11-03T11:02:18.564Z,96290.25
2022-11-03T11:04:49.254Z,96276.63
2022-11-03T11:07:23.298Z,96271.22
2022-11-03T11:09:51.508Z,96264.72
2022-11-03T11:12:22.334Z,96269.59
2022-11-03T11:14:55.924Z,96260.41
2022-11-03T11:17:49.592Z,96266.97
2022-11-03T11:20:35.595Z,96253.34
2022-11-03T11:23:49.852Z,96243.34
2022-11-03T11:26:35.451Z,96244.47
2022-11-03T11:29:43.362Z,96240.59
2022-11-03T11:32:47.662Z,96234.75
2022-11-03T11:35:38.161Z,96225.56
2022-11-03T11:38:42.199Z,96234.63
2022-11-03T11:41:10.133Z,96231.72
2022-11-03T11:43:38.186Z,96212.63
2022-11-03T11:46:42.450Z,96207.91
2022-11-03T11:49:20.310Z,96202.31
2022-11-03T11:51:49.738Z,96200.38
2022-11-03T11:54:21.367Z,96199.97
2022-11-03T11:56:52.869Z,96192.59
2022-11-03T11:59:25.632Z,96181.84
2022-11-03T12:01:56.925Z,96183.53
2022-11-03T12:04:29.211Z,96179.75
2022-11-03T12:06:58.666Z,96170.69
2022-11-03T12:09:28.614Z,96174.88
2022-11-03T12:12:00.728Z,96166.81
2022-11-03T12:14:37.758Z,96150.06
2022-11-03T12:17:32.864Z,96148.25
2022-11-03T12:20:22.514Z,96145.63
2022-11-03T12:22:51.946Z,96140.31
2022-11-03T12:25:37.148Z,96152.69
2022-11-03T12:28:05.550Z,96135.97
2022-11-03T12:30:39.480Z,96134.03
2022-11-03T12:33:08.212Z,96133.03
2022-11-03T12:35:36.374Z,96124.84
2022-11-03T12:38:05.635Z,96110.78
2022-11-03T12:40:33.897Z,96096.66
2022-11-03T12:43:02.178Z,96098.34
2022-11-03T12:45:30.379Z,96098.19
2022-11-03T12:47:58.963Z,96087.47
2022-11-03T12:50:27.463Z,96084.81
2022-11-03T12:52:57.052Z,96080.34
2022-11-03T12:58:00.499Z,96078.53
2022-11-03T13:00:28.486Z,96075.75
2022-11-03T13:02:56.680Z,96059.03
2022-11-03T13:05:25.823Z,96060.69
2022-11-03T13:07:54.249Z,96055.38
2022-11-03T13:10:22.285Z,96050.78
2022-11-03T13:12:51.566Z,96034.75
2022-11-03T13:15:19.724Z,96023.19
2022-11-03T13:20:36.252Z,96013.13
2022-11-03T13:23:04.980Z,96004.38
2022-11-03T13:25:33.315Z,95997.25
2022-11-03T13:28:04.082Z,95997.13
2022-11-03T13:30:33.667Z,95992.47
2022-11-03T13:33:02.364Z,95979.94
2022-11-03T13:35:30.462Z,95973.50
2022-11-03T13:37:58.450Z,95960.13
2022-11-03T13:40:54.836Z,95960.81
2022-11-03T13:43:15.669Z,95952.84
2022-11-03T13:45:43.629Z,95957.88
2022-11-03T13:51:00.277Z,95949.78
2022-11-03T13:56:21.402Z,95935.41
2022-11-03T14:01:41.471Z,95914.34
2022-11-03T14:06:58.376Z,95905.59
2022-11-03T14:09:26.497Z,95899.47
2022-11-03T14:12:17.122Z,95891.34
2022-11-03T14:14:46.441Z,95898.47
2022-11-03T14:17:14.571Z,95902.94
2022-11-03T14:19:46.179Z,95901.28
2022-11-03T14:22:18.512Z,95900.59
2022-11-03T14:24:46.479Z,95916.59
2022-11-03T14:27:15.786Z,95909.78
2022-11-03T14:29:44.297Z,95924.03
2022-11-03T14:32:13.790Z,95905.63
2022-11-03T14:34:41.853Z,95894.19
2022-11-03T14:37:10.017Z,95890.69
2022-11-03T14:39:38.592Z,95875.66
2022-11-03T14:42:06.590Z,95870.50
2022-11-03T14:44:35.982Z,95862.56
2022-11-03T14:47:05.664Z,95841.66
2022-11-03T14:49:36.508Z,95845.28
2022-11-03T14:52:07.228Z,95843.63
2022-11-03T14:54:36.075Z,95825.22
2022-11-03T14:57:04.856Z,95822.75
2022-11-03T14:59:33.223Z,95819.41
2022-11-03T15:02:01.649Z,95828.19
2022-11-03T15:04:29.792Z,95824.16
2022-11-03T15:06:59.107Z,95821.66
2022-11-03T15:09:27.104Z,95824.47
2022-11-03T15:11:55.252Z,95814.03
2022-11-03T15:14:23.149Z,95803.44
2022-11-03T15:16:51.139Z,95788.38
2022-11-03T15:19:18.986Z,95785.06
2022-11-03T15:21:46.944Z,95781.06
2022-11-03T15:27:04.405Z,95788.75
2022-11-03T15:29:32.363Z,95776.78
2022-11-03T15:32:00.883Z,95785.44
2022-11-03T15:34:29.668Z,95776.53
2022-11-03T15:36:57.650Z,95770.53
2022-11-03T15:39:29.656Z,95759.94
2022-11-03T15:41:57.596Z,95759.94
2022-11-03T15:44:25.554Z,95758.81
2022-11-03T15:46:53.397Z,95743.06
2022-11-03T15:49:21.378Z,95736.25
2022-11-03T15:51:49.311Z,95725.69
2022-11-03T15:54:17.706Z,95715.91
2022-11-03T15:56:47.156Z,95722.88
2022-11-03T15:59:15.024Z,95706.31
2022-11-03T16:01:43.099Z,95704.63
2022-11-03T16:04:11.339Z,95700.34
2022-11-03T16:07:07.303Z,95693.38
2022-11-03T16:09:27.135Z,95688.25
2022-11-03T16:11:56.483Z,95681.13
2022-11-03T16:14:24.450Z,95674.19
2022-11-03T16:16:52.519Z,95674.47
2022-11-03T16:19:20.471Z,95674.47
2022-11-03T16:21:48.489Z,95680.06
2022-11-03T16:24:16.414Z,95667.66
2022-11-03T16:26:44.414Z,95672.28
2022-11-03T16:29:13.819Z,95657.25
2022-11-03T16:31:41.751Z,95658.06
2022-11-03T16:34:10.018Z,95654.44
2022-11-03T16:36:37.972Z,95657.53
2022-11-03T16:39:05.870Z,95661.50
2022-11-03T16:41:33.854Z,95651.03
2022-11-03T16:44:01.710Z,95637.13
2022-11-03T16:46:31.139Z,95643.94
2022-11-03T16:51:28.290Z,95647.72
2022-11-03T16:53:58.182Z,95644.06
2022-11-03T16:56:26.071Z,95639.09
2022-11-03T16:58:54.048Z,95641.88
2022-11-03T17:01:22.061Z,95649.31
2022-11-03T17:03:52.400Z,95661.84
2022-11-03T17:06:20.551Z,95683.84
2022-11-03T17:08:53.265Z,95691.63
2022-11-03T17:11:35.873Z,95684.84
2022-11-03T17:14:06.376Z,95672.44
2022-11-03T17:16:34.559Z,95677.03
2022-11-03T17:19:04.375Z,95674.25
2022-11-03T17:21:32.265Z,95665.50
2022-11-03T17:24:00.337Z,95662.66
2022-11-03T17:26:42.915Z,95653.91
2022-11-03T17:29:18.485Z,95678.72
2022-11-03T17:31:46.572Z,95660.34
2022-11-03T17:34:17.827Z,95664.13
2022-11-03T17:36:45.944Z,95661.63
2022-11-03T17:39:17.240Z,95669.56
2022-11-03T17:41:45.307Z,95667.22
2022-11-03T17:44:14.639Z,95642.41
2022-11-03T17:46:42.650Z,95632.50
2022-11-03T17:49:10.820Z,95606.22
2022-11-03T17:51:43.976Z,95606.22
2022-11-03T17:54:17.881Z,95610.97
2022-11-03T17:56:46.231Z,95596.75
2022-11-03T17:59:16.411Z,95591.19
2022-11-03T18:01:48.384Z,95601.09
2022-11-03T18:04:16.555Z,95585.06
2022-11-03T18:06:48.788Z,95599.13
2022-11-03T18:09:17.223Z,95600.94
2022-11-03T18:12:03.259Z,95587.53
2022-11-03T18:14:31.404Z,95602.72
2022-11-03T18:16:59.821Z,95605.53
2022-11-03T18:19:28.013Z,95613.47
2022-11-03T18:21:57.470Z,95619.75
2022-11-03T18:24:26.825Z,95623.22
2022-11-03T18:26:55.242Z,95616.28
2022-11-03T18:29:23.239Z,95609.97
2022-11-03T18:31:51.294Z,95600.41
2022-11-03T18:34:23.261Z,95597.63
2022-11-03T18:36:52.598Z,95580.06
2022-11-03T18:39:24.367Z,95579.22
2022-11-03T18:41:52.458Z,95574.78
2022-11-03T18:44:22.707Z,95572.13
2022-11-03T18:46:52.370Z,95571.44
2022-11-03T18:49:20.620Z,95590.63
2022-11-03T18:51:51.104Z,95588.16
2022-11-03T18:54:24.208Z,95577.72
2022-11-03T18:56:53.963Z,95570.94
2022-11-03T18:59:25.767Z,95557.72
2022-11-03T19:01:54.347Z,95542.16
2022-11-03T19:04:22.482Z,95555.06
2022-11-03T19:06:52.241Z,95545.44
2022-11-03T19:09:24.716Z,95547.44
2022-11-03T19:11:55.626Z,95555.19
2022-11-03T19:14:27.272Z,95554.53
2022-11-03T19:19:45.261Z,95526.44
2022-11-03T19:22:14.886Z,95529.53
2022-11-03T19:24:44.816Z,95518.94
2022-11-03T19:27:18.010Z,95512.53
2022-11-03T19:29:47.951Z,95503.09
2022-11-03T19:32:21.942Z,95505.88
2022-11-03T19:34:56.309Z,95502.53
2022-11-03T19:37:24.368Z,95498.38
2022-11-03T19:39:53.991Z,95493.41
2022-11-03T19:42:33.125Z,95493.41
2022-11-03T19:45:02.549Z,95487.44
2022-11-03T19:47:34.716Z,95485.44
2022-11-03T19:50:04.405Z,95465.88
2022-11-03T19:52:33.063Z,95473.31
2022-11-03T19:55:05.636Z,95483.06
2022-11-03T19:57:34.100Z,95486.03
2022-11-03T20:00:03.178Z,95486.72
2022-11-03T20:02:35.981Z,95487.53
2022-11-03T20:05:04.352Z,95491.47
2022-11-03T20:07:32.416Z,95494.97
2022-11-03T20:10:02.582Z,95487.63
2022-11-03T20:12:32.358Z,95492.78
2022-11-03T20:15:00.393Z,95486.63
2022-11-03T20:17:28.640Z,95489.28
2022-11-03T20:19:56.557Z,95484.84
2022-11-03T20:22:29.142Z,95467.44
2022-11-03T20:25:00.384Z,95468.28
2022-11-03T20:27:28.537Z,95483.63
2022-11-03T20:29:57.847Z,95482.34
2022-11-03T20:32:25.779Z,95486.44
2022-11-03T20:34:53.689Z,95478.50
2022-11-03T20:37:21.798Z,95478.50
2022-11-03T20:39:50.156Z,95460.81
2022-11-03T20:42:21.913Z,95477.50
2022-11-03T20:44:50.233Z,95480.59
2022-11-03T20:47:20.960Z,95478.94
2022-11-03T20:49:49.059Z,95484.88
2022-11-03T20:52:17.467Z,95492.31
2022-11-03T20:54:45.765Z,95508.97
2022-11-03T20:57:14.394Z,95510.94
2022-11-03T20:59:42.369Z,95508.47
2022-11-03T21:02:14.467Z,95517.34
2022-11-03T21:04:44.096Z,95523.47
2022-11-03T21:07:13.766Z,95517.50
2022-11-03T21:09:41.977Z,95516.16
2022-11-03T21:12:13.887Z,95508.69
2022-11-03T21:15:05.125Z,95504.09
2022-11-03T21:17:50.827Z,95499.03
2022-11-03T21:20:20.125Z,95496.56
2022-11-03T21:22:52.899Z,95491.00
2022-11-03T21:25:24.398Z,95488.78
2022-11-03T21:27:53.705Z,95498.66
2022-11-03T21:30:21.869Z,95494.88
2022-11-03T21:32:49.793Z,95490.59
2022-11-03T21:35:20.565Z,95489.47
2022-11-03T21:37:50.155Z,95490.91
2022-11-03T21:40:18.708Z,95501.00
2022-11-03T21:43:04.395Z,95504.31
2022-11-03T21:45:32.365Z,95505.19
2022-11-03T21:48:18.430Z,95511.44
2022-11-03T21:50:46.536Z,95522.72
2022-11-03T21:53:15.943Z,95528.97
2022-11-03T21:55:43.940Z,95531.75
2022-11-03T21:58:12.717Z,95561.63
2022-11-03T22:00:40.659Z,95596.41
2022-11-03T22:03:08.855Z,95593.53
2022-11-03T22:05:37.407Z,95578.91
2022-11-03T22:08:08.509Z,95562.25
2022-11-03T22:10:40.630Z,95573.91
2022-11-03T22:13:08.953Z,95583.66
2022-11-03T22:15:54.541Z,95591.75
2022-11-03T22:18:22.517Z,95603.81
2022-11-03T22:21:08.045Z,95600.31
2022-11-03T22:24:07.774Z,95611.75
2022-11-03T22:26:54.518Z,95618.81
2022-11-03T22:29:39.817Z,95627.88
2022-11-03T22:32:14.178Z,95630.50
2022-11-03T22:34:59.749Z,95638.16
2022-11-03T22:37:27.673Z,95642.88
2022-11-03T22:40:13.202Z,95654.28
2022-11-03T22:42:59.792Z,95661.25
2022-11-03T22:45:45.054Z,95658.75
2022-11-03T22:48:13.700Z,95658.88
2022-11-03T22:50:41.721Z,95658.75
2022-11-03T22:53:23.562Z,95637.75
2022-11-03T22:55:51.470Z,95654.44
2022-11-03T22:58:20.826Z,95661.81
2022-11-03T23:00:48.836Z,95667.25
2022-11-03T23:03:18.083Z,95672.97
2022-11-03T23:05:45.977Z,95680.31
2022-11-03T23:08:14.056Z,95674.63
2022-11-03T23:10:42.069Z,95674.91
2022-11-03T23:13:10.389Z,95669.63
2022-11-03T23:15:43.681Z,95672.41
2022-11-03T23:18:29.294Z,95657.69
2022-11-03T23:21:09.719Z,95654.66
2022-11-03T23:23:56.896Z,95672.16
2022-11-03T23:26:27.193Z,95679.38
2022-11-03T23:28:55.309Z,95670.75
2022-11-03T23:31:24.614Z,95671.06
2022-11-03T23:33:52.611Z,95664.94
2022-11-03T23:36:20.846Z,95660.78
2022-11-03T23:38:48.913Z,95661.47
2022-11-03T23:41:18.814Z,95647.59
2022-11-03T23:43:47.482Z,95662.44
2022-11-03T23:46:34.862Z,95662.44
2022-11-03T23:49:04.865Z,95674.13
2022-11-03T23:51:34.191Z,95683.28
2022-11-03T23:54:03.304Z,95693.03
2022-11-03T23:56:53.606Z,95681.94
2022-11-03T23:59:21.755Z,95684.72
